Thunder radar more information blitzortung!


Radar de pluja more information rain snow radar


Visita la nostra xarxa de llocs de meteo:

Template documentation
and downloads

And another site



No particular awareness of the weather is required.    There are no Weather-warnings

Pagina Historial Weather Underground text

Diari Resum Desembre 9, 2017 Unitats:  Mètric    Imperial   Tant
« Previous Dia
SegĂźent Dia »
Diari Setmana Mensual Anual Personalitzada
  Maxima: Minima: Media:
Temperatura: 11.2 °C 1.8 °C 7.3 °C
Punt de rosada: 2.0 °C -2.7 °C 0.2 °C
Humitat: 72 % 53 % 61 %
Wind Speed: 13.0 km/h 0.0 km/h 3.7 km/h
RĂ fegues de vent: 13.0 km/h - -
Vent:- - SE
Pression baro: 1022.9 hPa 1018.8 hPa -
Precipitacions: 0.0 mm    
Historical Graphs
 
 
Dades de taula per Desembre 9, 2017
Temps Temperatura Punt de rosada Pression baro Vent Wind Speed RĂ fegues de vent Humitat Rainfall Rate (Hourly)
00:03 4.2 °C -1.2 °C 1019.9 hPa NW 2.6 km/h   68 % 0.0 mm
00:20 2.4 °C -2.3 °C 1019.9 hPa West 1.6 km/h 3.2 km/h 71 % 0.0 mm
00:30 2.5 °C -2.1 °C 1019.9 hPa Calm   3.2 km/h 72 % 0.0 mm
00:40 2.5 °C -2.1 °C 1019.9 hPa Calm   1.6 km/h 72 % 0.0 mm
00:50 2.5 °C -2.1 °C 1019.9 hPa West 1.6 km/h 3.2 km/h 72 % 0.0 mm
01:00 2.5 °C -2.1 °C 1019.9 hPa NW 1.6 km/h 3.2 km/h 72 % 0.0 mm
01:10 2.3 °C -2.2 °C 1019.9 hPa North 1.6 km/h 3.2 km/h 72 % 0.0 mm
01:20 2.2 °C -2.3 °C 1019.9 hPa Calm   1.6 km/h 72 % 0.0 mm
01:30 2.2 °C -2.3 °C 1019.9 hPa North 1.6 km/h 1.6 km/h 72 % 0.0 mm
01:40 2.0 °C -2.5 °C 1019.9 hPa NW 1.6 km/h 3.2 km/h 72 % 0.0 mm
01:50 2.1 °C -2.4 °C 1020.9 hPa NW 3.2 km/h 3.2 km/h 72 % 0.0 mm
02:00 2.0 °C -2.5 °C 1020.9 hPa Calm   3.2 km/h 72 % 0.0 mm
02:10 1.8 °C -2.7 °C 1020.9 hPa NW 1.6 km/h 1.6 km/h 72 % 0.0 mm
02:20 2.0 °C -2.5 °C 1021.9 hPa NW 1.6 km/h 3.2 km/h 72 % 0.0 mm
02:30 2.0 °C -2.5 °C 1021.9 hPa NNE 1.6 km/h 4.8 km/h 72 % 0.0 mm
02:40 2.0 °C -2.5 °C 1021.9 hPa North 1.6 km/h 6.4 km/h 72 % 0.0 mm
02:50 2.3 °C -2.2 °C 1021.9 hPa NNW 1.6 km/h 6.4 km/h 72 % 0.0 mm
03:00 2.4 °C -2.1 °C 1021.9 hPa NNW 1.6 km/h 3.2 km/h 72 % 0.0 mm
03:10 2.6 °C -1.9 °C 1021.9 hPa Calm   1.6 km/h 72 % 0.0 mm
03:20 3.4 °C -1.2 °C 1021.9 hPa NNE 1.6 km/h 4.8 km/h 72 % 0.0 mm
09:23 3.7 °C -0.9 °C 1021.9 hPa NNE 2.3 km/h 2.3 km/h 72 % 0.0 mm
09:24 3.9 °C -0.7 °C 1021.9 hPa ENE 5.0 km/h 5.0 km/h 72 % 0.0 mm
09:25 3.9 °C -0.7 °C 1021.9 hPa NNE 5.6 km/h 5.6 km/h 72 % 0.0 mm
09:35 4.4 °C -0.6 °C 1021.9 hPa ENE 7.4 km/h 7.4 km/h 70 % 0.0 mm
09:40 4.5 °C -0.5 °C 1021.9 hPa WSW 7.4 km/h 7.4 km/h 70 % 0.0 mm
09:45 4.8 °C -0.2 °C 1020.9 hPa ENE 3.7 km/h 3.7 km/h 70 % 0.0 mm
09:50 5.3 °C 0.3 °C 1020.9 hPa South 3.7 km/h 3.7 km/h 70 % 0.0 mm
09:55 5.7 °C 0.4 °C 1020.9 hPa ENE 2.6 km/h 2.6 km/h 69 % 0.0 mm
10:00 5.7 °C 0.2 °C 1021.9 hPa NNW 3.7 km/h 3.7 km/h 68 % 0.0 mm
10:05 5.8 °C 0.3 °C 1021.9 hPa WNW 3.7 km/h 3.7 km/h 68 % 0.0 mm
10:10 6.0 °C 0.6 °C 1021.9 hPa NW 3.7 km/h 3.7 km/h 68 % 0.0 mm
10:15 6.0 °C 0.3 °C 1021.9 hPa ENE 3.2 km/h 3.2 km/h 67 % 0.0 mm
10:20 6.1 °C 0.4 °C 1021.9 hPa NNW 7.4 km/h 7.4 km/h 67 % 0.0 mm
10:25 6.3 °C 0.6 °C 1021.9 hPa ENE 5.6 km/h 5.6 km/h 67 % 0.0 mm
10:30 6.5 °C 0.6 °C 1022.9 hPa NE 5.6 km/h 5.6 km/h 66 % 0.0 mm
10:35 6.5 °C 0.4 °C 1022.9 hPa NNE 3.7 km/h 3.7 km/h 65 % 0.0 mm
10:40 6.9 °C 0.8 °C 1022.9 hPa East 3.7 km/h 3.7 km/h 65 % 0.0 mm
10:45 6.4 °C 0.3 °C 1022.9 hPa NNE 9.3 km/h 9.3 km/h 65 % 0.0 mm
10:50 6.4 °C 0.1 °C 1022.9 hPa East 9.3 km/h 9.3 km/h 64 % 0.0 mm
10:55 6.5 °C 0.2 °C 1022.9 hPa NNE 5.6 km/h 5.6 km/h 64 % 0.0 mm
11:00 6.7 °C 0.4 °C 1022.9 hPa NNE 4.7 km/h 4.7 km/h 64 % 0.0 mm
11:05 6.7 °C 0.4 °C 1022.9 hPa WSW 5.6 km/h 5.6 km/h 64 % 0.0 mm
11:10 6.8 °C 0.2 °C 1022.9 hPa NNE 3.7 km/h 3.7 km/h 63 % 0.0 mm
11:15 6.9 °C 0.3 °C 1022.9 hPa East 5.6 km/h 5.6 km/h 63 % 0.0 mm
11:20 7.0 °C 0.4 °C 1022.9 hPa ENE 5.8 km/h 5.8 km/h 63 % 0.0 mm
11:25 7.0 °C 0.4 °C 1022.9 hPa NNE 5.6 km/h 5.6 km/h 63 % 0.0 mm
11:26 7.0 °C 0.4 °C 1022.9 hPa NNE 5.6 km/h 5.6 km/h 63 % 0.0 mm
11:31 7.0 °C 0.2 °C 1022.9 hPa ENE 7.4 km/h 7.4 km/h 62 % 0.0 mm
11:36 7.2 °C 0.4 °C 1022.9 hPa NNE 7.4 km/h 7.4 km/h 62 % 0.0 mm
11:41 7.5 °C 0.7 °C 1022.9 hPa North 5.6 km/h 5.6 km/h 62 % 0.0 mm
11:46 7.6 °C 0.8 °C 1022.9 hPa NE 5.3 km/h 5.3 km/h 62 % 0.0 mm
11:51 7.9 °C 1.1 °C 1022.9 hPa ESE 3.7 km/h 3.7 km/h 62 % 0.0 mm
11:56 8.0 °C 0.9 °C 1022.9 hPa NNE 7.4 km/h 7.4 km/h 61 % 0.0 mm
12:01 7.8 °C 0.7 °C 1021.9 hPa ENE 9.3 km/h 9.3 km/h 61 % 0.0 mm
12:06 8.1 °C 1.0 °C 1021.9 hPa NE 6.9 km/h 6.9 km/h 61 % 0.0 mm
12:11 8.1 °C 1.0 °C 1021.9 hPa NNE 9.3 km/h 9.3 km/h 61 % 0.0 mm
12:16 8.3 °C 1.0 °C 1021.9 hPa WNW 5.6 km/h 5.6 km/h 60 % 0.0 mm
12:21 8.5 °C 1.2 °C 1021.9 hPa ENE 5.8 km/h 5.8 km/h 60 % 0.0 mm
12:26 8.6 °C 1.3 °C 1021.9 hPa ENE 5.3 km/h 5.3 km/h 60 % 0.0 mm
12:31 8.6 °C 1.1 °C 1021.9 hPa NNE 5.6 km/h 5.6 km/h 59 % 0.0 mm
12:36 8.8 °C 1.2 °C 1021.9 hPa NE 7.4 km/h 7.4 km/h 59 % 0.0 mm
12:41 8.9 °C 1.3 °C 1021.9 hPa NNE 6.4 km/h 6.4 km/h 59 % 0.0 mm
12:46 9.0 °C 1.2 °C 1021.9 hPa North 6.9 km/h 6.9 km/h 58 % 0.0 mm
12:51 9.1 °C 1.3 °C 1021.9 hPa NNE 5.6 km/h 5.6 km/h 58 % 0.0 mm
12:56 9.3 °C 1.4 °C 1021.9 hPa NNE 3.7 km/h 3.7 km/h 58 % 0.0 mm
13:01 9.6 °C 1.7 °C 1021.9 hPa NNE 3.9 km/h 3.9 km/h 58 % 0.0 mm
13:06 9.4 °C 1.3 °C 1021.9 hPa ENE 7.4 km/h 7.4 km/h 57 % 0.0 mm
13:11 9.3 °C 0.9 °C 1021.9 hPa ENE 7.4 km/h 7.4 km/h 56 % 0.0 mm
13:16 9.5 °C 1.4 °C 1021.9 hPa ENE 3.7 km/h 3.7 km/h 57 % 0.0 mm
13:21 9.8 °C 1.7 °C 1021.9 hPa ENE 5.6 km/h 5.6 km/h 57 % 0.0 mm
13:26 9.9 °C 1.5 °C 1021.9 hPa ENE 3.7 km/h 3.7 km/h 56 % 0.0 mm
13:31 10.1 °C 1.7 °C 1021.9 hPa ENE 1.9 km/h   56 % 0.0 mm
13:36 10.0 °C 1.4 °C 1021.9 hPa ESE 7.4 km/h 7.4 km/h 55 % 0.0 mm
13:51 9.8 °C 1.2 °C 1021.9 hPa ESE 5.3 km/h 5.3 km/h 55 % 0.0 mm
14:00 7.1 °C -0.6 °C 1018.8 hPa Calm     58 % 0.0 mm
14:01 10.0 °C 1.4 °C 1021.9 hPa NE 3.9 km/h 4.2 km/h 55 % 0.0 mm
14:06 9.9 °C 1.3 °C 1021.9 hPa SE 7.4 km/h 7.4 km/h 55 % 0.0 mm
14:10 7.0 °C -0.7 °C 1019.9 hPa Calm     58 % 0.0 mm
14:14 10.0 °C 1.1 °C 1020.9 hPa ESE 7.4 km/h 7.4 km/h 54 % 0.0 mm
14:20 6.7 °C -1.0 °C 1018.8 hPa West 1.6 km/h 1.6 km/h 58 % 0.0 mm
14:24 10.2 °C 1.3 °C 1020.9 hPa ESE 6.9 km/h 6.9 km/h 54 % 0.0 mm
14:29 10.2 °C 1.3 °C 1020.9 hPa East 7.4 km/h 7.4 km/h 54 % 0.0 mm
14:30 6.5 °C -0.9 °C 1018.8 hPa NNE 1.6 km/h 3.2 km/h 59 % 0.0 mm
14:34 10.5 °C 1.6 °C 1020.9 hPa South 5.6 km/h 5.6 km/h 54 % 0.0 mm
14:39 10.6 °C 1.7 °C 1020.9 hPa SSE 7.4 km/h 7.4 km/h 54 % 0.0 mm
14:40 6.4 °C -1.1 °C 1019.9 hPa Calm   3.2 km/h 59 % 0.0 mm
14:44 10.8 °C 1.6 °C 1020.9 hPa SSE 5.6 km/h 5.6 km/h 53 % 0.0 mm
14:49 11.0 °C 1.8 °C 1020.9 hPa SSE 7.4 km/h 7.4 km/h 53 % 0.0 mm
14:50 6.1 °C -1.3 °C 1019.9 hPa NNW 1.6 km/h 3.2 km/h 59 % 0.0 mm
14:54 11.1 °C 1.9 °C 1020.9 hPa ESE 5.6 km/h 5.6 km/h 53 % 0.0 mm
14:59 11.1 °C 1.9 °C 1019.9 hPa SE 7.4 km/h 7.4 km/h 53 % 0.0 mm
15:00 5.8 °C -1.4 °C 1019.9 hPa Calm   3.2 km/h 60 % 0.0 mm
15:04 11.2 °C 1.9 °C 1019.9 hPa ESE 10.0 km/h 10.0 km/h 53 % 0.0 mm
15:09 10.9 °C 1.7 °C 1019.9 hPa ENE 7.9 km/h 7.9 km/h 53 % 0.0 mm
15:10 5.6 °C -1.3 °C 1019.9 hPa Calm     61 % 0.0 mm
15:14 10.9 °C 1.7 °C 1020.9 hPa SE 9.3 km/h 9.3 km/h 53 % 0.0 mm
15:19 10.6 °C 1.4 °C 1020.9 hPa East 13.0 km/h 13.0 km/h 53 % 0.0 mm
15:20 5.6 °C -1.3 °C 1019.9 hPa West 1.6 km/h 1.6 km/h 61 % 0.0 mm
15:24 10.4 °C 1.2 °C 1020.9 hPa ESE 13.0 km/h 13.0 km/h 53 % 0.0 mm
15:29 10.3 °C 1.4 °C 1020.9 hPa ESE 9.3 km/h 9.3 km/h 54 % 0.0 mm
15:30 5.6 °C -1.1 °C 1019.9 hPa Calm   1.6 km/h 62 % 0.0 mm
15:34 10.2 °C 1.3 °C 1020.9 hPa ESE 9.3 km/h 9.3 km/h 54 % 0.0 mm
15:39 10.2 °C 1.3 °C 1020.9 hPa East 7.4 km/h 7.4 km/h 54 % 0.0 mm
15:40 5.7 °C -1.0 °C 1019.9 hPa WSW 1.6 km/h 3.2 km/h 62 % 0.0 mm
15:44 10.3 °C 1.4 °C 1020.9 hPa East 4.2 km/h 4.7 km/h 54 % 0.0 mm
15:49 10.3 °C 1.4 °C 1020.9 hPa NNE 5.6 km/h 5.6 km/h 54 % 0.0 mm
15:50 5.8 °C -0.9 °C 1019.9 hPa SW 1.6 km/h 3.2 km/h 62 % 0.0 mm
15:54 10.4 °C 1.7 °C 1020.9 hPa ENE 5.6 km/h 5.6 km/h 55 % 0.0 mm
15:59 10.2 °C 1.6 °C 1020.9 hPa ESE 5.6 km/h 5.6 km/h 55 % 0.0 mm
16:00 5.9 °C -0.8 °C 1019.9 hPa Calm   3.2 km/h 62 % 0.0 mm
16:04 10.3 °C 1.9 °C 1020.9 hPa ENE 3.7 km/h 3.7 km/h 56 % 0.0 mm
16:09 10.3 °C 1.9 °C 1020.9 hPa ENE 5.6 km/h 5.6 km/h 56 % 0.0 mm
16:10 5.9 °C -0.6 °C 1019.9 hPa Calm     63 % 0.0 mm
16:14 10.4 °C 2.0 °C 1020.9 hPa ENE 3.7 km/h 3.7 km/h 56 % 0.0 mm
16:19 10.4 °C 1.7 °C 1020.9 hPa ESE 5.6 km/h 5.6 km/h 55 % 0.0 mm
16:20 5.9 °C -0.6 °C 1019.9 hPa Calm   1.6 km/h 63 % 0.0 mm
16:29 10.5 °C 1.8 °C 1019.9 hPa NE 3.7 km/h 3.7 km/h 55 % 0.0 mm
16:34 10.5 °C 1.8 °C 1019.9 hPa NE 3.7 km/h 3.7 km/h 55 % 0.0 mm
16:39 10.5 °C 1.8 °C 1019.9 hPa East 3.2 km/h 3.2 km/h 55 % 0.0 mm
16:44 10.4 °C 2.0 °C 1020.9 hPa NNE 3.7 km/h 3.7 km/h 56 % 0.0 mm
16:49 10.4 °C 2.0 °C 1020.9 hPa NE 5.0 km/h 5.0 km/h 56 % 0.0 mm
16:54 10.3 °C 1.9 °C 1020.9 hPa NE 4.2 km/h 4.2 km/h 56 % 0.0 mm
16:59 10.2 °C 1.8 °C 1020.9 hPa ENE 3.7 km/h 3.7 km/h 56 % 0.0 mm
17:04 10.1 °C 1.7 °C 1020.9 hPa ENE 1.9 km/h   56 % 0.0 mm
17:09 10.0 °C 1.9 °C 1020.9 hPa WSW 1.9 km/h   57 % 0.0 mm
17:14 10.0 °C 1.9 °C 1019.9 hPa WSW 3.7 km/h 3.7 km/h 57 % 0.0 mm
17:19 9.9 °C 1.8 °C 1019.9 hPa West 3.7 km/h 3.7 km/h 57 % 0.0 mm
17:24 9.7 °C 1.6 °C 1019.9 hPa West 1.9 km/h 1.9 km/h 57 % 0.0 mm
17:29 9.5 °C 1.4 °C 1020.9 hPa SW 1.9 km/h 1.9 km/h 57 % 0.0 mm
17:34 9.3 °C 1.2 °C 1020.9 hPa SW 2.3 km/h   57 % 0.0 mm
17:39 9.2 °C 1.1 °C 1020.9 hPa Calm     57 % 0.0 mm
17:44 9.0 °C 0.9 °C 1019.9 hPa WSW 1.9 km/h 1.9 km/h 57 % 0.0 mm
17:49 9.0 °C 0.9 °C 1019.9 hPa WSW 1.9 km/h   57 % 0.0 mm
17:54 8.8 °C 0.7 °C 1019.9 hPa WNW 3.7 km/h 3.7 km/h 57 % 0.0 mm
17:59 8.7 °C 0.4 °C 1019.9 hPa WSW 1.9 km/h 1.9 km/h 56 % 0.0 mm
18:04 8.5 °C 0.2 °C 1019.9 hPa SW 2.6 km/h 2.6 km/h 56 % 0.0 mm
18:09 8.4 °C 0.1 °C 1019.9 hPa SW 1.9 km/h 1.9 km/h 56 % 0.0 mm
18:14 8.2 °C 0.2 °C 1019.9 hPa Calm     57 % 0.0 mm
18:20 8.1 °C 0.1 °C 1019.9 hPa SW 1.9 km/h 2.3 km/h 57 % 0.0 mm
18:25 8.0 °C 0.0 °C 1019.9 hPa WSW 2.6 km/h   57 % 0.0 mm
18:30 8.0 °C 0.0 °C 1019.9 hPa WSW 3.7 km/h 3.7 km/h 57 % 0.0 mm
18:35 7.9 °C -0.1 °C 1019.9 hPa WSW 1.9 km/h   57 % 0.0 mm
18:45 7.6 °C -0.4 °C 1018.8 hPa WSW 1.4 km/h   57 % 0.0 mm
18:50 7.6 °C -0.4 °C 1018.8 hPa SW 3.7 km/h 3.7 km/h 57 % 0.0 mm
18:55 7.6 °C -0.4 °C 1018.8 hPa WSW 1.9 km/h 1.9 km/h 57 % 0.0 mm
19:00 7.5 °C -0.2 °C 1019.9 hPa SW 1.9 km/h 1.9 km/h 58 % 0.0 mm
19:05 7.5 °C -0.2 °C 1019.9 hPa SW 1.9 km/h 1.9 km/h 58 % 0.0 mm
19:10 7.4 °C -0.3 °C 1019.9 hPa WSW 3.7 km/h 3.7 km/h 58 % 0.0 mm
19:15 7.3 °C -0.4 °C 1019.9 hPa WSW 1.9 km/h 1.9 km/h 58 % 0.0 mm
19:20 7.3 °C -0.4 °C 1019.9 hPa WNW 3.7 km/h 3.7 km/h 58 % 0.0 mm
19:25 7.3 °C -0.4 °C 1019.9 hPa West 3.7 km/h 3.7 km/h 58 % 0.0 mm
19:30 7.3 °C -0.4 °C 1019.9 hPa WSW 3.7 km/h 3.7 km/h 58 % 0.0 mm
19:35 7.4 °C -0.3 °C 1019.9 hPa WSW 1.9 km/h 1.9 km/h 58 % 0.0 mm
19:40 7.4 °C -0.3 °C 1019.9 hPa Calm     58 % 0.0 mm
19:45 7.3 °C -0.4 °C 1018.8 hPa WSW 1.9 km/h   58 % 0.0 mm
19:50 7.3 °C -0.4 °C 1018.8 hPa WSW 1.9 km/h   58 % 0.0 mm
22:29 5.9 °C -0.4 °C 1019.9 hPa NNE 1.9 km/h   64 % 0.0 mm
22:34 5.9 °C -0.4 °C 1019.9 hPa Calm     64 % 0.0 mm
22:39 5.9 °C -0.4 °C 1019.9 hPa NE 2.3 km/h 2.3 km/h 64 % 0.0 mm
22:44 5.8 °C -0.5 °C 1019.9 hPa NE 2.3 km/h 2.3 km/h 64 % 0.0 mm
22:49 5.7 °C -0.6 °C 1019.9 hPa NE 1.9 km/h 1.9 km/h 64 % 0.0 mm
22:54 5.7 °C -0.6 °C 1019.9 hPa Calm     64 % 0.0 mm
22:59 5.6 °C -0.7 °C 1018.8 hPa Calm     64 % 0.0 mm
23:04 5.6 °C -0.7 °C 1018.8 hPa Calm     64 % 0.0 mm
23:09 5.6 °C -0.7 °C 1018.8 hPa Calm     64 % 0.0 mm
23:14 5.6 °C -0.7 °C 1019.9 hPa Calm     64 % 0.0 mm
23:19 5.6 °C -0.7 °C 1019.9 hPa Calm     64 % 0.0 mm
23:24 5.6 °C -0.7 °C 1019.9 hPa Calm     64 % 0.0 mm
23:29 5.5 °C -0.8 °C 1018.8 hPa ENE 3.7 km/h 3.7 km/h 64 % 0.0 mm
23:34 5.5 °C -0.8 °C 1018.8 hPa Calm     64 % 0.0 mm
23:39 5.4 °C -0.9 °C 1018.8 hPa Calm     64 % 0.0 mm
23:44 5.4 °C -0.9 °C 1018.8 hPa WSW 1.9 km/h   64 % 0.0 mm
23:49 5.3 °C -0.9 °C 1018.8 hPa WSW 2.3 km/h 2.3 km/h 64 % 0.0 mm
23:54 5.3 °C -0.9 °C 1018.8 hPa WSW 3.7 km/h 3.7 km/h 64 % 0.0 mm
23:59 5.3 °C -0.9 °C 1018.8 hPa SW 1.9 km/h   64 % 0.0 mm
Meteo Sesrovires
Elogis d' Weather Underground - 3.5 mb

Guio original per  Jim McMurry - jmcmurry@mwt.net Adaptat per a la plantilla per  Wim van der Kuil - Leuven-Template.eu

Trobareu la nostra informacio del temps tambe a:

Weather Underground

AWEKAS